METAR Data
IDs: Format: Raw Decoded Include TAF

Data at: 1407 UTC 21 Apr 2021

PHNL 211353Z 31005KT 10SM FEW030 FEW220 22/17 A3002 RMK AO2 SLP165 T02170172 $
PHNL 211253Z 35003KT 10SM FEW030 SCT220 22/17 A3002 RMK AO2 SLP165 T02170167 $

PHNL 211131Z 2112/2218 VRB04KT P6SM FEW040 SCT100 BKN200
  FM212100 09010KT P6SM FEW040 SCT100 SCT200
  FM220600 06007KT P6SM FEW040 SCT100


PHOG 211354Z AUTO 18006KT 10SM CLR 20/20 A3000 RMK AO2 SLP165 T02000200 TSNO $
PHOG 211254Z AUTO 18003KT 10SM FEW016 FEW110 21/21 A3000 RMK AO2 SLP165 T02110211 TSNO $

PHOG 211131Z 2112/2212 VRB04KT P6SM FEW050 SCT120
  FM211900 03012KT P6SM FEW050 SCT120
  FM212300 03015G21KT P6SM FEW030 SCT050
  FM220900 06008KT P6SM FEW030 SCT050 AMD LTD TO VIS AND WIND TIL 211600


PHKO 211353Z AUTO 11005KT 10SM SCT022 BKN037 24/19 A2999 RMK AO2 SLP154 T02440194 TSNO
PHKO 211323Z AUTO 13006KT 10SM BKN020 BKN025 24/19 A2999 RMK AO2 T02390194 TSNO
PHKO 211253Z AUTO 15004KT 10SM CLR 24/19 A2999 RMK AO2 SLP155 T02440194 TSNO

PHKO 211348Z 2114/2212 VRB04KT P6SM FEW040 SCT060
  TEMPO 2113/2115 14007KT SCT025 BKN040
  FM212000 24010KT P6SM FEW045 SCT070
  FM220200 18010KT P6SM SCT045 BKN070
  FM221000 08007KT P6SM FEW040 SCT060


PHTO 211401Z AUTO 00000KT 3SM -RA SCT024 BKN030 OVC038 22/19 A3003 RMK AO2 P0002 T02170189 TSNO
PHTO 211357Z AUTO 15006KT 2 1/2SM RA SCT024 BKN028 OVC034 22/19 A3003 RMK AO2 P0001 T02220189 TSNO
PHTO 211353Z AUTO 16008KT 3SM RA SCT024 BKN031 OVC039 22/19 A3003 RMK AO2 RAB25 SLP167 P0002 T02220189 TSNO
PHTO 211323Z AUTO 35003KT 10SM SCT021 BKN027 OVC048 23/18 A3003 RMK AO2 T02280178 TSNO
PHTO 211253Z AUTO 00000KT 10SM OVC050 23/17 A3003 RMK AO2 SLP167 T02280172 TSNO

PHTO 211401Z 2114/2212 VRB05KT P6SM VCSH SCT025 BKN045
  TEMPO 2114/2116 15008KT 3SM SHRA BKN020 OVC035
  FM212200 09011KT P6SM BKN045
  FM220600 VRB05KT P6SM VCSH SCT030 OVC045


PHLI 211353Z AUTO 28004KT 10SM OVC043 20/18 A3003 RMK AO2 SLP168 T02000183 TSNO
PHLI 211253Z AUTO 27004KT 10SM BKN040 21/19 A3004 RMK AO2 SLP169 T02060189 TSNO

PHLI 211131Z 2112/2212 28005KT P6SM VCSH FEW025 SCT035 BKN080
  FM212100 05011KT P6SM FEW025 SCT035 BKN080
  FM220900 05008KT P6SM FEW035 SCT080